Time;durP1;ratioP1;P1;durP2;ratioP2;P2;SDS_P1;SDS_P2;PMS_P1;PMS_P2;Temp;Humidity;BMP_temperature;BMP_pressure;BME280_temperature;BME280_humidity;BME280_pressure;Samples;Min_cycle;Max_cycle;Signal;HPM_P1;HPM_P2
2023/10/31 00:00:17;;;;;;;26.33;12.82;;;;;;;;;;5092523;28;20046;-68
2023/10/31 00:02:45;;;;;;;26.17;12.52;;;;;;;;;;5094465;28;20093;-68
2023/10/31 00:05:12;;;;;;;31.13;12.25;;;;;;;;;;5097023;28;20044;-67
2023/10/31 00:07:40;;;;;;;28.50;12.63;;;;;;;;;;5078686;28;20119;-67
2023/10/31 00:10:08;;;;;;;27.92;11.60;;;;;;;;;;5096682;28;20036;-67
2023/10/31 00:12:36;;;;;;;24.27;11.98;;;;;;;;;;5096691;28;20093;-67
2023/10/31 00:15:04;;;;;;;26.98;12.50;;;;;;;;;;5096278;28;20512;-67
2023/10/31 00:17:31;;;;;;;27.20;12.48;;;;;;;;;;5096517;28;20107;-67
2023/10/31 00:19:58;;;;;;;30.58;12.70;;;;;;;;;;5096394;28;20046;-67
2023/10/31 00:22:26;;;;;;;27.30;12.63;;;;;;;;;;5096416;28;20119;-67
2023/10/31 00:24:53;;;;;;;30.60;13.10;;;;;;;;;;5096528;28;20044;-67
2023/10/31 00:27:21;;;;;;;32.92;12.73;;;;;;;;;;5096541;28;20478;-67
2023/10/31 00:29:48;;;;;;;27.67;12.02;;;;;;;;;;5078063;28;20577;-67
2023/10/31 00:32:16;;;;;;;29.45;12.13;;;;;;;;;;5078060;28;20076;-67
2023/10/31 00:34:43;;;;;;;23.73;10.98;;;;;;;;;;5095567;28;20048;-67
2023/10/31 00:37:11;;;;;;;26.17;11.35;;;;;;;;;;5077962;28;20039;-67
2023/10/31 00:39:39;;;;;;;32.17;11.90;;;;;;;;;;5077924;28;20482;-67
2023/10/31 00:42:07;;;;;;;23.08;11.45;;;;;;;;;;5077891;28;20052;-67
2023/10/31 00:44:35;;;;;;;25.55;12.07;;;;;;;;;;5095730;28;20051;-67
2023/10/31 00:47:05;;;;;;;27.90;12.00;;;;;;;;;;5061573;28;20055;-67
2023/10/31 00:49:32;;;;;;;26.02;11.18;;;;;;;;;;5077736;28;20051;-66
2023/10/31 00:52:00;;;;;;;30.25;12.25;;;;;;;;;;5077852;28;20047;-67
2023/10/31 00:54:27;;;;;;;30.08;12.25;;;;;;;;;;5077684;28;20040;-67
2023/10/31 00:56:55;;;;;;;25.48;11.82;;;;;;;;;;5077632;28;20047;-68
2023/10/31 00:59:22;;;;;;;23.90;11.70;;;;;;;;;;5077574;28;20063;-68
2023/10/31 01:01:50;;;;;;;27.30;11.02;;;;;;;;;;5077405;28;20044;-67
2023/10/31 01:04:17;;;;;;;20.17;10.48;;;;;;;;;;5095654;28;20044;-67
2023/10/31 01:06:45;;;;;;;29.25;10.93;;;;;;;;;;5077709;28;20059;-67
2023/10/31 01:09:13;;;;;;;23.48;10.95;;;;;;;;;;5077319;28;20140;-67
2023/10/31 01:11:40;;;;;;;22.85;10.70;;;;;;;;;;5077349;28;20052;-67
2023/10/31 01:14:08;;;;;;;21.92;10.88;;;;;;;;;;5076455;28;20036;-67
2023/10/31 01:16:35;;;;;;;23.67;10.48;;;;;;;;;;5095307;28;20150;-67
2023/10/31 01:19:03;;;;;;;23.40;10.30;;;;;;;;;;5077330;28;20089;-67
2023/10/31 01:21:30;;;;;;;23.25;11.52;;;;;;;;;;5060499;28;20456;-67
2023/10/31 01:23:59;;;;;;;30.10;11.60;;;;;;;;;;5060362;28;20397;-67
2023/10/31 01:26:26;;;;;;;22.25;10.73;;;;;;;;;;5095550;28;20394;-67
2023/10/31 01:28:54;;;;;;;24.67;10.63;;;;;;;;;;5076936;28;20043;-66
2023/10/31 01:31:21;;;;;;;26.23;11.40;;;;;;;;;;5094983;28;20058;-67
2023/10/31 01:33:49;;;;;;;24.35;11.15;;;;;;;;;;5076761;28;20036;-67
2023/10/31 01:36:18;;;;;;;23.23;11.65;;;;;;;;;;5076827;28;20058;-67
2023/10/31 01:38:46;;;;;;;23.08;10.43;;;;;;;;;;5076616;28;20430;-67
2023/10/31 01:41:14;;;;;;;24.13;11.05;;;;;;;;;;5077089;28;20500;-67
2023/10/31 01:43:42;;;;;;;24.15;10.35;;;;;;;;;;5076643;28;20048;-67
2023/10/31 01:46:10;;;;;;;26.40;10.73;;;;;;;;;;5076723;28;20387;-67
2023/10/31 01:48:38;;;;;;;25.80;10.90;;;;;;;;;;5076666;28;20044;-66
2023/10/31 01:51:06;;;;;;;23.38;10.73;;;;;;;;;;5076493;28;20490;-67
2023/10/31 01:53:34;;;;;;;25.50;10.40;;;;;;;;;;5076451;28;20129;-66
2023/10/31 01:56:02;;;;;;;27.45;11.75;;;;;;;;;;5094482;28;20120;-66
2023/10/31 01:58:37;;;;;;;20.40;10.73;;;;;;;;;;5076618;28;20036;-67
2023/10/31 02:01:06;;;;;;;26.25;11.00;;;;;;;;;;5076239;28;20135;-66
2023/10/31 02:03:34;;;;;;;25.40;11.73;;;;;;;;;;5076746;28;20478;-67
2023/10/31 02:06:01;;;;;;;23.00;12.05;;;;;;;;;;5094410;28;20044;-67
2023/10/31 02:08:29;;;;;;;26.95;11.93;;;;;;;;;;5076150;28;20486;-67
2023/10/31 02:10:57;;;;;;;25.90;11.88;;;;;;;;;;5076094;28;20056;-68
2023/10/31 02:13:24;;;;;;;26.63;12.57;;;;;;;;;;5059532;28;20135;-67
2023/10/31 02:15:52;;;;;;;27.58;11.93;;;;;;;;;;5076395;28;20067;-67
2023/10/31 02:18:19;;;;;;;29.20;12.27;;;;;;;;;;5076034;28;20058;-67
2023/10/31 02:20:47;;;;;;;31.08;12.05;;;;;;;;;;5076132;28;20040;-67
2023/10/31 02:23:17;;;;;;;27.30;11.85;;;;;;;;;;5075937;28;20040;-67
2023/10/31 02:25:45;;;;;;;29.77;12.48;;;;;;;;;;5074809;28;20044;-67
2023/10/31 02:28:12;;;;;;;26.30;13.23;;;;;;;;;;5075671;28;20040;-67
2023/10/31 02:30:41;;;;;;;29.55;13.65;;;;;;;;;;5075738;28;20040;-67
2023/10/31 02:33:08;;;;;;;27.48;12.55;;;;;;;;;;5075797;28;20059;-67
2023/10/31 02:35:36;;;;;;;33.30;13.00;;;;;;;;;;5075795;28;20093;-67
2023/10/31 02:38:03;;;;;;;35.40;13.65;;;;;;;;;;5094083;28;20097;-68
2023/10/31 02:40:31;;;;;;;30.38;13.02;;;;;;;;;;5075771;28;20040;-67
2023/10/31 02:42:59;;;;;;;23.75;12.15;;;;;;;;;;5075560;28;20065;-67
2023/10/31 02:45:26;;;;;;;24.92;11.82;;;;;;;;;;5075412;28;20051;-67
2023/10/31 02:47:54;;;;;;;23.40;12.30;;;;;;;;;;5093525;28;20044;-67
2023/10/31 02:50:21;;;;;;;24.17;12.57;;;;;;;;;;5059052;28;20035;-67
2023/10/31 02:52:49;;;;;;;24.73;12.48;;;;;;;;;;5075394;28;20044;-67
2023/10/31 02:55:16;;;;;;;23.83;12.27;;;;;;;;;;5075298;28;20547;-67
2023/10/31 02:57:44;;;;;;;26.95;12.85;;;;;;;;;;5075227;28;20040;-67
2023/10/31 03:00:11;;;;;;;24.33;12.10;;;;;;;;;;5075218;28;20059;-67
2023/10/31 03:02:39;;;;;;;27.38;13.23;;;;;;;;;;5075118;28;20043;-67
2023/10/31 03:05:07;;;;;;;24.67;12.95;;;;;;;;;;5075236;28;20048;-67
2023/10/31 03:07:35;;;;;;;26.35;12.45;;;;;;;;;;5075402;28;20047;-67
2023/10/31 03:10:02;;;;;;;29.77;12.73;;;;;;;;;;5075224;28;20071;-67
2023/10/31 03:12:30;;;;;;;29.27;14.25;;;;;;;;;;5093261;28;20419;-67
2023/10/31 03:14:57;;;;;;;25.42;13.13;;;;;;;;;;5093360;28;20397;-67
2023/10/31 03:17:26;;;;;;;31.42;13.20;;;;;;;;;;5075022;28;20105;-67
2023/10/31 03:19:53;;;;;;;26.65;13.70;;;;;;;;;;5092970;28;20043;-67
2023/10/31 03:22:21;;;;;;;31.38;14.27;;;;;;;;;;5092827;28;20032;-67
2023/10/31 03:24:49;;;;;;;35.03;14.68;;;;;;;;;;5074823;28;20490;-67
2023/10/31 03:27:16;;;;;;;25.95;14.68;;;;;;;;;;5092937;28;20040;-67
2023/10/31 03:29:44;;;;;;;27.38;13.98;;;;;;;;;;5092931;28;20040;-67
2023/10/31 03:32:12;;;;;;;36.47;15.10;;;;;;;;;;5092922;28;20473;-67
2023/10/31 03:34:40;;;;;;;25.95;15.65;;;;;;;;;;5058331;28;20093;-67
2023/10/31 03:37:08;;;;;;;28.45;14.13;;;;;;;;;;5057174;28;20036;-67
2023/10/31 03:39:36;;;;;;;24.17;12.90;;;;;;;;;;5074652;28;20131;-67
2023/10/31 03:42:05;;;;;;;33.42;14.43;;;;;;;;;;5074899;28;20044;-67
2023/10/31 03:44:32;;;;;;;30.65;14.73;;;;;;;;;;5057891;28;20490;-67
2023/10/31 03:47:00;;;;;;;25.83;13.52;;;;;;;;;;5074397;28;20067;-67
2023/10/31 03:49:27;;;;;;;28.27;14.07;;;;;;;;;;5074532;28;20088;-67
2023/10/31 03:51:55;;;;;;;32.05;14.27;;;;;;;;;;5057947;28;20067;-67
2023/10/31 03:54:22;;;;;;;27.73;13.75;;;;;;;;;;5074541;28;20072;-67
2023/10/31 03:56:50;;;;;;;26.13;13.60;;;;;;;;;;5074393;28;20055;-67
2023/10/31 03:59:18;;;;;;;26.23;13.60;;;;;;;;;;5074568;28;20041;-67
2023/10/31 04:01:45;;;;;;;25.70;13.40;;;;;;;;;;5074644;28;20140;-67
2023/10/31 04:04:13;;;;;;;22.80;13.80;;;;;;;;;;5074419;28;20044;-67
2023/10/31 04:06:41;;;;;;;27.25;14.52;;;;;;;;;;5074593;28;20040;-67
2023/10/31 04:09:10;;;;;;;28.48;14.63;;;;;;;;;;5074403;28;20101;-67
2023/10/31 04:11:38;;;;;;;30.23;15.30;;;;;;;;;;5092358;28;20044;-67
2023/10/31 04:14:09;;;;;;;27.50;14.70;;;;;;;;;;5092215;28;20090;-68
2023/10/31 04:16:45;;;;;;;26.60;14.93;;;;;;;;;;5092013;28;20036;-67
2023/10/31 04:19:13;;;;;;;36.35;17.25;;;;;;;;;;5092243;28;20044;-67
2023/10/31 04:21:41;;;;;;;35.25;17.65;;;;;;;;;;5092375;28;20068;-67
2023/10/31 04:24:08;;;;;;;43.28;18.52;;;;;;;;;;5074160;28;20039;-67
2023/10/31 04:26:36;;;;;;;38.25;18.80;;;;;;;;;;5092290;28;20044;-67
2023/10/31 04:29:03;;;;;;;46.55;20.20;;;;;;;;;;5091999;28;20051;-67
2023/10/31 04:31:31;;;;;;;45.35;21.05;;;;;;;;;;5092075;28;20040;-67
2023/10/31 04:34:10;;;;;;;55.10;23.83;;;;;;;;;;5092250;28;20111;-67
2023/10/31 04:36:38;;;;;;;55.17;25.90;;;;;;;;;;5091749;28;20032;-68
2023/10/31 04:39:05;;;;;;;53.13;24.35;;;;;;;;;;5091927;28;20036;-68
2023/10/31 04:41:33;;;;;;;53.60;23.60;;;;;;;;;;5092173;28;20040;-68
2023/10/31 04:44:00;;;;;;;48.80;22.90;;;;;;;;;;5091997;28;20047;-68
2023/10/31 04:46:28;;;;;;;51.60;23.80;;;;;;;;;;5074366;28;20111;-68
2023/10/31 04:48:55;;;;;;;45.67;21.38;;;;;;;;;;5092623;28;20101;-68
2023/10/31 04:51:23;;;;;;;45.90;22.35;;;;;;;;;;5095842;28;20040;-68
2023/10/31 04:53:50;;;;;;;40.45;21.80;;;;;;;;;;5095762;28;20032;-68
2023/10/31 04:56:18;;;;;;;38.45;18.38;;;;;;;;;;5095611;28;20036;-67
2023/10/31 04:58:46;;;;;;;42.33;18.90;;;;;;;;;;5095661;28;20051;-68
2023/10/31 05:01:14;;;;;;;43.58;18.40;;;;;;;;;;5095631;28;20044;-68
2023/10/31 05:03:41;;;;;;;37.97;19.02;;;;;;;;;;5095505;28;20036;-67
2023/10/31 05:06:09;;;;;;;38.38;18.45;;;;;;;;;;5095622;28;20040;-68
2023/10/31 05:08:37;;;;;;;38.72;19.42;;;;;;;;;;5095574;28;20074;-68
2023/10/31 05:11:04;;;;;;;48.67;19.55;;;;;;;;;;5077360;28;20432;-67
2023/10/31 05:13:32;;;;;;;44.67;20.98;;;;;;;;;;5095355;28;20040;-68
2023/10/31 05:15:59;;;;;;;43.35;19.30;;;;;;;;;;5093823;28;20028;-68
2023/10/31 05:18:27;;;;;;;40.03;19.38;;;;;;;;;;5093290;28;20044;-68
2023/10/31 05:20:54;;;;;;;34.70;19.30;;;;;;;;;;5093258;28;20563;-68
2023/10/31 05:23:22;;;;;;;41.60;21.30;;;;;;;;;;5093355;28;20495;-68
2023/10/31 05:25:49;;;;;;;41.22;20.98;;;;;;;;;;5093214;28;20063;-68
2023/10/31 05:28:17;;;;;;;32.53;19.55;;;;;;;;;;5093598;28;20420;-68
2023/10/31 05:30:44;;;;;;;42.80;20.65;;;;;;;;;;5094332;28;20599;-69
2023/10/31 05:33:12;;;;;;;38.90;19.38;;;;;;;;;;5095024;28;20438;-68
2023/10/31 05:35:40;;;;;;;41.35;20.42;;;;;;;;;;5095130;28;20083;-68
2023/10/31 05:38:07;;;;;;;47.25;20.08;;;;;;;;;;5095202;28;20062;-68
2023/10/31 05:40:35;;;;;;;46.53;20.70;;;;;;;;;;5076738;28;20482;-68
2023/10/31 05:43:03;;;;;;;41.67;20.33;;;;;;;;;;5094761;28;20064;-67
2023/10/31 05:45:31;;;;;;;41.10;20.08;;;;;;;;;;5094758;28;20127;-67
2023/10/31 05:47:58;;;;;;;43.00;19.33;;;;;;;;;;5094796;28;20090;-67
2023/10/31 05:50:26;;;;;;;38.33;18.60;;;;;;;;;;5094654;28;20114;-67
2023/10/31 05:52:53;;;;;;;37.75;19.40;;;;;;;;;;5094577;28;20043;-67
2023/10/31 05:55:21;;;;;;;36.72;17.70;;;;;;;;;;5094572;28;20433;-67
2023/10/31 05:57:48;;;;;;;31.85;17.15;;;;;;;;;;5094601;28;20036;-67
2023/10/31 06:00:16;;;;;;;32.80;17.80;;;;;;;;;;5093095;28;20453;-67
2023/10/31 06:02:44;;;;;;;36.13;18.98;;;;;;;;;;5094591;28;20389;-67
2023/10/31 06:05:11;;;;;;;33.67;16.73;;;;;;;;;;5094372;28;20044;-68
2023/10/31 06:07:39;;;;;;;29.45;16.30;;;;;;;;;;5094495;28;20032;-67
2023/10/31 06:10:07;;;;;;;38.05;17.92;;;;;;;;;;5076124;28;20117;-68
2023/10/31 06:12:34;;;;;;;34.25;17.38;;;;;;;;;;5076285;28;20493;-67
2023/10/31 06:15:03;;;;;;;31.92;18.30;;;;;;;;;;5075986;28;20531;-68
2023/10/31 06:17:33;;;;;;;32.05;16.70;;;;;;;;;;5094252;28;20118;-67
2023/10/31 06:20:01;;;;;;;34.58;18.02;;;;;;;;;;5094300;28;20093;-68
2023/10/31 06:22:29;;;;;;;34.20;17.15;;;;;;;;;;5094143;28;20086;-68
2023/10/31 06:24:58;;;;;;;32.13;17.23;;;;;;;;;;5093959;28;20059;-68
2023/10/31 06:27:25;;;;;;;38.72;17.73;;;;;;;;;;5094006;28;20046;-68
2023/10/31 06:29:55;;;;;;;32.50;16.73;;;;;;;;;;5094076;28;20370;-68
2023/10/31 06:32:42;;;;;;;39.97;18.38;;;;;;;;;;5079078;28;20043;-67
2023/10/31 06:35:10;;;;;;;39.72;19.35;;;;;;;;;;5093985;28;20105;-68
2023/10/31 06:37:37;;;;;;;36.13;19.23;;;;;;;;;;5093691;28;20071;-67
2023/10/31 06:40:05;;;;;;;35.20;18.00;;;;;;;;;;5093804;28;20046;-68
2023/10/31 06:42:33;;;;;;;39.72;18.60;;;;;;;;;;5093757;28;20044;-68
2023/10/31 06:45:00;;;;;;;37.67;18.55;;;;;;;;;;5093586;28;20044;-68
2023/10/31 06:47:28;;;;;;;41.50;19.15;;;;;;;;;;5094002;28;20398;-68
2023/10/31 06:49:55;;;;;;;31.27;17.40;;;;;;;;;;5093531;28;20044;-68
2023/10/31 06:52:23;;;;;;;30.67;17.65;;;;;;;;;;5093452;28;20120;-69
2023/10/31 06:54:50;;;;;;;32.95;18.25;;;;;;;;;;5093598;28;20111;-68
2023/10/31 06:57:18;;;;;;;37.05;17.77;;;;;;;;;;5093419;28;20101;-68
2023/10/31 06:59:46;;;;;;;37.97;16.67;;;;;;;;;;5075287;28;20044;-68
2023/10/31 07:02:16;;;;;;;33.10;15.68;;;;;;;;;;5075274;28;20044;-68
2023/10/31 07:04:44;;;;;;;25.70;14.23;;;;;;;;;;5093145;28;20111;-67
2023/10/31 07:07:11;;;;;;;26.77;14.68;;;;;;;;;;5093104;28;20394;-68
2023/10/31 07:09:39;;;;;;;34.83;14.32;;;;;;;;;;5074962;28;20105;-68
2023/10/31 07:12:06;;;;;;;29.10;14.23;;;;;;;;;;5074510;28;20040;-68
2023/10/31 07:14:34;;;;;;;26.13;13.73;;;;;;;;;;5093004;28;20513;-68
2023/10/31 07:17:01;;;;;;;24.42;12.88;;;;;;;;;;5093180;28;20414;-69
2023/10/31 07:19:29;;;;;;;24.95;11.85;;;;;;;;;;5074987;28;20101;-68
2023/10/31 07:21:56;;;;;;;20.63;11.75;;;;;;;;;;5092640;28;20420;-68
2023/10/31 07:24:26;;;;;;;21.23;12.32;;;;;;;;;;5074855;28;20105;-69
2023/10/31 07:26:54;;;;;;;20.83;10.75;;;;;;;;;;5092754;28;20409;-69
2023/10/31 07:29:22;;;;;;;33.95;11.75;;;;;;;;;;5092803;28;20039;-69
2023/10/31 07:31:49;;;;;;;24.17;10.77;;;;;;;;;;5092605;28;20052;-69
2023/10/31 07:34:17;;;;;;;21.13;10.68;;;;;;;;;;5092682;28;20096;-69
2023/10/31 07:36:44;;;;;;;27.27;10.73;;;;;;;;;;5092856;28;20040;-69
2023/10/31 07:39:12;;;;;;;17.33;10.68;;;;;;;;;;5092792;28;20051;-68
2023/10/31 07:41:40;;;;;;;19.02;10.25;;;;;;;;;;5092447;28;20040;-69
2023/10/31 07:44:10;;;;;;;17.35;10.00;;;;;;;;;;5074284;28;20036;-69
2023/10/31 07:46:37;;;;;;;24.08;10.88;;;;;;;;;;5092572;28;20039;-69
2023/10/31 07:49:05;;;;;;;22.85;10.43;;;;;;;;;;5092588;28;20043;-68
2023/10/31 07:51:32;;;;;;;26.08;10.48;;;;;;;;;;5074512;28;20129;-68
2023/10/31 07:54:00;;;;;;;28.38;11.07;;;;;;;;;;5092815;28;20036;-69
2023/10/31 07:56:28;;;;;;;38.83;12.82;;;;;;;;;;5074406;28;20071;-69
2023/10/31 07:58:55;;;;;;;33.33;13.18;;;;;;;;;;5092678;28;20207;-69
2023/10/31 08:01:23;;;;;;;25.50;10.55;;;;;;;;;;5092417;28;20052;-69
2023/10/31 08:03:51;;;;;;;26.38;11.40;;;;;;;;;;5092388;28;20086;-69
2023/10/31 08:06:18;;;;;;;27.40;12.10;;;;;;;;;;5074705;28;20047;-70
2023/10/31 08:08:46;;;;;;;29.17;10.07;;;;;;;;;;5092423;28;20064;-69
2023/10/31 08:11:13;;;;;;;24.58;9.82;;;;;;;;;;5092209;28;20050;-70
2023/10/31 08:13:41;;;;;;;27.05;9.30;;;;;;;;;;5092356;28;20036;-70
2023/10/31 08:16:08;;;;;;;21.13;6.53;;;;;;;;;;5092533;28;20036;-70
2023/10/31 08:18:36;;;;;;;23.23;8.07;;;;;;;;;;5092426;28;20123;-70
2023/10/31 08:21:04;;;;;;;17.90;7.20;;;;;;;;;;5092378;28;20044;-69
2023/10/31 08:23:32;;;;;;;24.77;7.43;;;;;;;;;;5093846;28;20067;-69
2023/10/31 08:25:59;;;;;;;15.43;6.80;;;;;;;;;;5096448;28;20040;-69
2023/10/31 08:28:28;;;;;;;16.33;6.20;;;;;;;;;;5096401;28;20036;-69
2023/10/31 08:30:56;;;;;;;21.38;7.88;;;;;;;;;;5096446;28;20079;-68
2023/10/31 08:33:23;;;;;;;17.88;7.07;;;;;;;;;;5096153;28;20047;-69
2023/10/31 08:35:51;;;;;;;16.13;6.20;;;;;;;;;;5096158;28;20047;-69
2023/10/31 08:38:18;;;;;;;15.10;7.20;;;;;;;;;;5096157;28;20093;-68
2023/10/31 08:40:57;;;;;;;20.75;6.63;;;;;;;;;;5096045;28;20036;-68
2023/10/31 08:43:25;;;;;;;21.45;6.95;;;;;;;;;;5095944;28;20039;-67
2023/10/31 08:45:52;;;;;;;19.45;6.95;;;;;;;;;;5096050;28;20135;-68
2023/10/31 08:48:20;;;;;;;16.27;6.40;;;;;;;;;;5077639;28;20044;-68
2023/10/31 08:50:47;;;;;;;19.58;7.07;;;;;;;;;;5096099;28;20146;-68
2023/10/31 08:53:15;;;;;;;19.52;7.90;;;;;;;;;;5077830;28;20352;-68
2023/10/31 08:55:44;;;;;;;13.32;6.90;;;;;;;;;;5095727;28;20120;-69
2023/10/31 08:58:13;;;;;;;17.98;6.65;;;;;;;;;;5095790;28;20040;-69
2023/10/31 09:00:40;;;;;;;18.63;7.20;;;;;;;;;;5095700;28;20496;-68
2023/10/31 09:03:08;;;;;;;15.35;6.22;;;;;;;;;;5095643;28;20064;-68
2023/10/31 09:05:36;;;;;;;13.98;6.68;;;;;;;;;;5095625;28;20047;-69
2023/10/31 09:08:05;;;;;;;20.48;7.32;;;;;;;;;;5095519;28;20047;-68
2023/10/31 09:10:33;;;;;;;17.92;8.23;;;;;;;;;;5095576;28;20106;-68
2023/10/31 09:13:00;;;;;;;13.18;6.28;;;;;;;;;;5095498;28;20489;-68
2023/10/31 09:15:28;;;;;;;16.40;7.03;;;;;;;;;;5095312;28;20044;-69
2023/10/31 09:17:55;;;;;;;20.90;7.40;;;;;;;;;;5095370;28;20409;-68
2023/10/31 09:20:23;;;;;;;21.23;7.65;;;;;;;;;;5095441;28;20043;-69
2023/10/31 09:22:50;;;;;;;21.92;8.05;;;;;;;;;;5095385;28;20040;-68
2023/10/31 09:25:18;;;;;;;18.15;8.73;;;;;;;;;;5095072;28;20044;-68
2023/10/31 09:27:45;;;;;;;18.30;9.02;;;;;;;;;;5095089;28;20055;-68
2023/10/31 09:30:13;;;;;;;19.42;9.27;;;;;;;;;;5095142;28;20048;-68
2023/10/31 09:32:40;;;;;;;14.63;7.07;;;;;;;;;;5095147;28;20047;-68
2023/10/31 09:35:08;;;;;;;18.98;7.45;;;;;;;;;;5095166;28;20101;-67
2023/10/31 09:37:36;;;;;;;18.58;8.63;;;;;;;;;;5095147;28;20123;-68
2023/10/31 09:40:04;;;;;;;19.58;7.80;;;;;;;;;;5095014;28;20421;-69
2023/10/31 09:42:31;;;;;;;18.83;8.65;;;;;;;;;;5094814;28;20055;-68
2023/10/31 09:44:59;;;;;;;18.55;7.95;;;;;;;;;;5094559;28;20051;-68
2023/10/31 09:47:27;;;;;;;20.52;11.13;;;;;;;;;;5094764;28;20040;-68
2023/10/31 09:49:54;;;;;;;17.92;10.48;;;;;;;;;;5094975;28;20036;-69
2023/10/31 09:52:23;;;;;;;19.02;8.70;;;;;;;;;;5094516;28;20086;-69
2023/10/31 09:54:52;;;;;;;14.68;6.72;;;;;;;;;;5076681;28;20032;-68
2023/10/31 09:57:20;;;;;;;15.02;7.22;;;;;;;;;;5094575;28;20119;-68
2023/10/31 09:59:48;;;;;;;16.85;6.70;;;;;;;;;;5094601;28;20070;-68
2023/10/31 10:02:15;;;;;;;20.13;11.40;;;;;;;;;;5094701;28;20044;-68
2023/10/31 10:04:43;;;;;;;16.35;9.55;;;;;;;;;;5094465;28;20476;-69
2023/10/31 10:07:14;;;;;;;17.58;6.45;;;;;;;;;;5094671;28;20068;-68
2023/10/31 10:09:42;;;;;;;13.45;5.45;;;;;;;;;;5094229;28;20482;-69
2023/10/31 10:12:12;;;;;;;14.25;5.60;;;;;;;;;;5094257;28;20032;-68
2023/10/31 10:14:40;;;;;;;12.52;5.53;;;;;;;;;;5094173;28;20048;-69
2023/10/31 10:17:18;;;;;;;16.27;6.03;;;;;;;;;;5094182;28;20557;-69
2023/10/31 10:19:45;;;;;;;15.68;5.97;;;;;;;;;;5094210;28;20047;-69
2023/10/31 10:22:16;;;;;;;18.40;6.30;;;;;;;;;;5076676;28;20059;-69
2023/10/31 10:24:43;;;;;;;13.38;5.75;;;;;;;;;;5093860;28;20486;-69
2023/10/31 10:27:10;;;;;;;13.90;5.90;;;;;;;;;;5094161;28;20040;-69
2023/10/31 10:29:38;;;;;;;14.27;5.85;;;;;;;;;;5093916;28;20385;-69
2023/10/31 10:32:08;;;;;;;17.45;5.57;;;;;;;;;;5093790;28;20059;-68
2023/10/31 10:34:36;;;;;;;12.60;5.75;;;;;;;;;;5093864;28;20044;-68
2023/10/31 10:37:06;;;;;;;16.55;5.47;;;;;;;;;;5093673;28;20486;-68
2023/10/31 10:39:35;;;;;;;13.75;5.30;;;;;;;;;;5075824;28;20093;-69
2023/10/31 10:42:08;;;;;;;18.88;6.53;;;;;;;;;;5093736;28;20331;-69
2023/10/31 10:44:36;;;;;;;18.55;5.55;;;;;;;;;;5093504;28;20501;-69
2023/10/31 10:47:06;;;;;;;9.90;4.35;;;;;;;;;;5092673;28;20044;-69
2023/10/31 10:49:37;;;;;;;13.38;5.22;;;;;;;;;;5075664;28;20126;-69
2023/10/31 10:52:20;;;;;;;14.73;5.00;;;;;;;;;;5093405;28;20036;-68
2023/10/31 10:54:55;;;;;;;13.65;5.55;;;;;;;;;;5093586;28;20119;-69
2023/10/31 10:57:42;;;;;;;10.50;5.28;;;;;;;;;;5093320;28;20256;-69
2023/10/31 11:00:12;;;;;;;13.88;7.85;;;;;;;;;;5093271;28;20032;-69
2023/10/31 11:02:45;;;;;;;11.20;4.28;;;;;;;;;;5093057;28;20048;-69
2023/10/31 11:05:14;;;;;;;9.30;3.85;;;;;;;;;;5093117;28;20368;-69
2023/10/31 11:07:43;;;;;;;11.68;5.65;;;;;;;;;;5075361;28;20131;-69
2023/10/31 11:10:10;;;;;;;10.57;4.63;;;;;;;;;;5074990;28;20114;-69
2023/10/31 11:12:39;;;;;;;9.20;3.80;;;;;;;;;;5092917;28;20367;-70
2023/10/31 11:15:07;;;;;;;10.88;4.63;;;;;;;;;;5093067;28;20044;-69
2023/10/31 11:17:35;;;;;;;9.60;4.18;;;;;;;;;;5093083;28;20047;-69
2023/10/31 11:20:03;;;;;;;8.52;3.30;;;;;;;;;;5075114;28;20039;-68
2023/10/31 11:22:41;;;;;;;11.55;3.50;;;;;;;;;;5092940;28;20044;-68
2023/10/31 11:25:10;;;;;;;9.82;3.80;;;;;;;;;;5075085;28;20436;-68
2023/10/31 11:27:50;;;;;;;8.50;4.30;;;;;;;;;;5092845;28;20428;-69
2023/10/31 11:30:30;;;;;;;8.20;3.28;;;;;;;;;;5074739;28;20044;-68
2023/10/31 11:32:59;;;;;;;11.82;4.63;;;;;;;;;;5092988;28;20040;-69
2023/10/31 11:35:29;;;;;;;8.02;3.92;;;;;;;;;;5093134;28;20401;-69
2023/10/31 11:38:06;;;;;;;10.45;4.20;;;;;;;;;;5092725;28;20486;-69
2023/10/31 11:40:34;;;;;;;10.05;3.83;;;;;;;;;;5092732;28;20426;-69
2023/10/31 11:43:06;;;;;;;12.57;5.60;;;;;;;;;;5092696;28;20071;-69
2023/10/31 11:45:54;;;;;;;12.85;4.50;;;;;;;;;;5092576;28;20382;-68
2023/10/31 11:48:43;;;;;;;13.77;4.90;;;;;;;;;;5092871;28;20071;-69
2023/10/31 11:51:10;;;;;;;7.40;3.42;;;;;;;;;;5092619;28;20036;-69
2023/10/31 11:53:39;;;;;;;7.75;3.90;;;;;;;;;;5074547;28;20059;-69
2023/10/31 11:56:07;;;;;;;8.82;3.80;;;;;;;;;;5092594;28;20044;-69
2023/10/31 11:58:34;;;;;;;9.52;3.75;;;;;;;;;;5095818;28;20044;-69
2023/10/31 12:01:04;;;;;;;11.13;3.75;;;;;;;;;;5099473;28;20114;-70
2023/10/31 12:03:53;;;;;;;8.10;3.50;;;;;;;;;;5099239;28;20040;-70
2023/10/31 12:06:21;;;;;;;5.78;3.10;;;;;;;;;;5099204;28;20040;-69
2023/10/31 12:08:49;;;;;;;8.20;3.42;;;;;;;;;;5081377;28;20036;-70
2023/10/31 12:11:21;;;;;;;9.70;3.38;;;;;;;;;;5099308;28;20401;-69
2023/10/31 12:13:54;;;;;;;7.03;3.83;;;;;;;;;;5099022;28;20094;-70
2023/10/31 12:16:26;;;;;;;8.75;3.80;;;;;;;;;;5099269;28;20032;-70
2023/10/31 12:19:04;;;;;;;9.80;4.55;;;;;;;;;;5081069;28;20040;-69
2023/10/31 12:21:49;;;;;;;8.43;3.85;;;;;;;;;;5099442;28;20127;-69
2023/10/31 12:24:18;;;;;;;9.27;4.88;;;;;;;;;;5099204;28;20048;-69
2023/10/31 12:26:46;;;;;;;11.73;4.35;;;;;;;;;;5081201;28;20539;-69
2023/10/31 12:29:15;;;;;;;9.85;3.97;;;;;;;;;;5099076;28;20043;-70
2023/10/31 12:31:45;;;;;;;6.95;3.40;;;;;;;;;;5099205;28;20036;-70
2023/10/31 12:34:14;;;;;;;7.07;3.13;;;;;;;;;;5098982;28;20048;-70
2023/10/31 12:36:42;;;;;;;6.88;3.33;;;;;;;;;;5098953;28;20040;-69
2023/10/31 12:39:11;;;;;;;5.57;3.10;;;;;;;;;;5098925;28;20481;-69
2023/10/31 12:41:39;;;;;;;7.78;3.20;;;;;;;;;;5098903;28;20466;-69
2023/10/31 12:44:10;;;;;;;9.52;4.22;;;;;;;;;;5098974;28;20393;-69
2023/10/31 12:46:41;;;;;;;9.85;4.00;;;;;;;;;;5098727;28;20135;-70
2023/10/31 12:49:13;;;;;;;13.73;4.18;;;;;;;;;;5081113;28;20066;-70
2023/10/31 12:51:55;;;;;;;10.48;5.43;;;;;;;;;;5098822;28;20043;-70
2023/10/31 12:54:30;;;;;;;11.60;5.63;;;;;;;;;;5098772;28;20123;-70
2023/10/31 12:57:01;;;;;;;5.97;2.72;;;;;;;;;;5099085;28;20452;-69
2023/10/31 12:59:28;;;;;;;8.65;3.40;;;;;;;;;;5080597;28;20040;-69
2023/10/31 13:01:59;;;;;;;10.25;4.10;;;;;;;;;;5098682;28;20132;-69
2023/10/31 13:04:28;;;;;;;6.65;3.45;;;;;;;;;;5098837;28;20058;-69
2023/10/31 13:07:00;;;;;;;10.32;4.00;;;;;;;;;;5080080;28;20097;-70
2023/10/31 13:09:35;;;;;;;10.63;3.83;;;;;;;;;;5097286;28;20141;-70
2023/10/31 13:12:06;;;;;;;8.65;3.55;;;;;;;;;;5095633;28;20064;-70
2023/10/31 13:14:34;;;;;;;11.93;3.90;;;;;;;;;;5095429;28;20523;-70
2023/10/31 13:17:02;;;;;;;10.45;3.67;;;;;;;;;;5095418;28;20498;-69
2023/10/31 13:19:31;;;;;;;20.05;7.82;;;;;;;;;;5095487;28;20085;-70
2023/10/31 13:21:58;;;;;;;15.60;6.60;;;;;;;;;;5095417;28;20040;-69
2023/10/31 13:24:26;;;;;;;23.05;11.55;;;;;;;;;;5095237;28;20036;-69
2023/10/31 13:26:53;;;;;;;16.30;9.25;;;;;;;;;;5095156;28;20044;-70
2023/10/31 13:29:21;;;;;;;13.00;6.15;;;;;;;;;;5095250;28;20040;-69
2023/10/31 13:31:49;;;;;;;10.85;4.97;;;;;;;;;;5095054;28;20059;-70
2023/10/31 13:34:17;;;;;;;15.73;5.25;;;;;;;;;;5076888;28;20116;-69
2023/10/31 13:36:44;;;;;;;11.15;4.68;;;;;;;;;;5095052;28;20371;-69
2023/10/31 13:39:12;;;;;;;12.73;4.13;;;;;;;;;;5095020;28;20044;-70
2023/10/31 13:41:39;;;;;;;11.50;3.88;;;;;;;;;;5095028;28;20074;-70
2023/10/31 13:44:07;;;;;;;18.13;4.93;;;;;;;;;;5094510;28;20576;-69
2023/10/31 13:46:35;;;;;;;21.08;5.35;;;;;;;;;;5094782;28;20122;-69
2023/10/31 13:49:03;;;;;;;18.67;5.18;;;;;;;;;;5094981;28;20044;-69
2023/10/31 13:51:31;;;;;;;19.60;4.60;;;;;;;;;;5076828;28;20033;-70
2023/10/31 13:53:58;;;;;;;16.55;5.57;;;;;;;;;;5094588;28;20504;-69
2023/10/31 13:56:26;;;;;;;15.50;6.43;;;;;;;;;;5094612;28;20054;-69
2023/10/31 13:58:53;;;;;;;20.90;7.72;;;;;;;;;;5076563;28;20036;-70
2023/10/31 14:01:45;;;;;;;14.63;5.88;;;;;;;;;;5094278;28;20123;-70
2023/10/31 14:05:00;;;;;;;8.25;3.90;;;;;;;;;;5011056;28;20519;-70
2023/10/31 14:07:28;;;;;;;9.60;3.63;;;;;;;;;;5012253;28;20124;-69
2023/10/31 14:09:56;;;;;;;15.05;4.70;;;;;;;;;;5012290;28;20082;-69
2023/10/31 14:12:24;;;;;;;17.08;5.30;;;;;;;;;;5012128;28;20085;-70
2023/10/31 14:14:52;;;;;;;19.50;5.13;;;;;;;;;;5012074;28;20081;-69
2023/10/31 14:17:21;;;;;;;22.13;5.95;;;;;;;;;;5011837;28;20521;-70
2023/10/31 14:19:52;;;;;;;18.13;6.97;;;;;;;;;;4996236;28;20156;-69
2023/10/31 14:22:20;;;;;;;18.05;6.50;;;;;;;;;;5011809;28;20615;-69
2023/10/31 14:24:47;;;;;;;19.45;6.40;;;;;;;;;;5011768;28;20591;-69
2023/10/31 14:27:15;;;;;;;23.77;7.38;;;;;;;;;;5012039;28;20053;-70
2023/10/31 14:33:42;;;;;;;19.67;7.20;;;;;;;;;;4981034;28;20120;-70
2023/10/31 14:36:12;;;;;;;25.40;8.00;;;;;;;;;;5046383;28;20127;-70